sensor_id;sensor_type;location;lat;lon;timestamp;pressure;altitude;pressure_sealevel;temperature;humidity
22830;BME280;11581;51.250;6.778;2023-02-28T00:01:12;102588.13;;;3.33;48.61
22830;BME280;11581;51.250;6.778;2023-02-28T00:03:41;102555.44;;;3.14;48.39
22830;BME280;11581;51.250;6.778;2023-02-28T00:06:08;102583.69;;;3.33;48.59
22830;BME280;11581;51.250;6.778;2023-02-28T00:08:37;102559.63;;;3.19;48.54
22830;BME280;11581;51.250;6.778;2023-02-28T00:11:08;102579.28;;;3.34;49.31
22830;BME280;11581;51.250;6.778;2023-02-28T00:13:40;102529.53;;;3.02;48.46
22830;BME280;11581;51.250;6.778;2023-02-28T00:16:10;102556.06;;;3.20;48.92
22830;BME280;11581;51.250;6.778;2023-02-28T00:18:38;102572.25;;;3.34;48.39
22830;BME280;11581;51.250;6.778;2023-02-28T00:21:07;102575.72;;;3.35;48.80
22830;BME280;11581;51.250;6.778;2023-02-28T00:23:34;102415.94;;;2.38;48.45
22830;BME280;11581;51.250;6.778;2023-02-28T00:26:01;102580.09;;;3.36;48.85
22830;BME280;11581;51.250;6.778;2023-02-28T00:28:29;102579.28;;;3.34;49.28
22830;BME280;11581;51.250;6.778;2023-02-28T00:30:58;102335.91;;;1.96;48.92
22830;BME280;11581;51.250;6.778;2023-02-28T00:33:26;102577.38;;;3.37;49.16
22830;BME280;11581;51.250;6.778;2023-02-28T00:36:01;102572.91;;;3.39;50.44
22830;BME280;11581;51.250;6.778;2023-02-28T00:38:29;102577.16;;;3.43;49.19
22830;BME280;11581;51.250;6.778;2023-02-28T00:40:56;102540.06;;;3.25;49.51
22830;BME280;11581;51.250;6.778;2023-02-28T00:43:24;102570.75;;;3.50;49.43
22830;BME280;11581;51.250;6.778;2023-02-28T00:45:54;102570.69;;;3.52;49.60
22830;BME280;11581;51.250;6.778;2023-02-28T00:48:21;102580.88;;;3.61;49.45
22830;BME280;11581;51.250;6.778;2023-02-28T00:50:51;102487.78;;;3.13;49.36
22830;BME280;11581;51.250;6.778;2023-02-28T00:53:18;102575.22;;;3.70;49.14
22830;BME280;11581;51.250;6.778;2023-02-28T00:55:46;102565.38;;;3.75;49.04
22830;BME280;11581;51.250;6.778;2023-02-28T00:58:12;102568.78;;;3.77;48.95
22830;BME280;11581;51.250;6.778;2023-02-28T01:00:39;102577.50;;;3.79;48.67
22830;BME280;11581;51.250;6.778;2023-02-28T01:03:08;102574.81;;;3.80;49.03
22830;BME280;11581;51.250;6.778;2023-02-28T01:05:35;102458.00;;;3.11;48.79
22830;BME280;11581;51.250;6.778;2023-02-28T01:08:02;102583.50;;;3.82;48.78
22830;BME280;11581;51.250;6.778;2023-02-28T01:10:29;102619.63;;;3.82;48.41
22830;BME280;11581;51.250;6.778;2023-02-28T01:12:57;102583.59;;;3.81;48.56
22830;BME280;11581;51.250;6.778;2023-02-28T01:15:24;102592.47;;;3.78;48.48
22830;BME280;11581;51.250;6.778;2023-02-28T01:17:50;102588.19;;;3.76;48.60
22830;BME280;11581;51.250;6.778;2023-02-28T01:20:19;102583.03;;;3.73;49.13
22830;BME280;11581;51.250;6.778;2023-02-28T01:22:46;102582.28;;;3.69;48.54
22830;BME280;11581;51.250;6.778;2023-02-28T01:25:13;102595.69;;;3.65;48.66
22830;BME280;11581;51.250;6.778;2023-02-28T01:27:41;102583.50;;;3.61;48.72
22830;BME280;11581;51.250;6.778;2023-02-28T01:30:10;102585.47;;;3.56;48.91
22830;BME280;11581;51.250;6.778;2023-02-28T01:32:37;102561.31;;;3.43;49.08
22830;BME280;11581;51.250;6.778;2023-02-28T01:35:05;102578.84;;;3.46;49.21
22830;BME280;11581;51.250;6.778;2023-02-28T01:37:33;102552.31;;;3.26;49.80
22830;BME280;11581;51.250;6.778;2023-02-28T01:40:00;102579.19;;;3.37;49.43
22830;BME280;11581;51.250;6.778;2023-02-28T01:42:27;102502.03;;;2.86;49.49
22830;BME280;11581;51.250;6.778;2023-02-28T01:44:57;102528.16;;;2.92;49.99
22830;BME280;11581;51.250;6.778;2023-02-28T01:47:28;102575.34;;;3.22;50.08
22830;BME280;11581;51.250;6.778;2023-02-28T01:49:56;102554.28;;;2.98;49.45
22830;BME280;11581;51.250;6.778;2023-02-28T01:52:24;102584.44;;;3.14;49.80
22830;BME280;11581;51.250;6.778;2023-02-28T01:54:56;102573.19;;;3.09;50.79
22830;BME280;11581;51.250;6.778;2023-02-28T01:57:30;102575.09;;;3.05;51.01
22830;BME280;11581;51.250;6.778;2023-02-28T02:00:07;102576.13;;;3.01;50.64
22830;BME280;11581;51.250;6.778;2023-02-28T02:02:48;102546.31;;;2.76;50.48
22830;BME280;11581;51.250;6.778;2023-02-28T02:05:17;102561.81;;;2.84;50.28
22830;BME280;11581;51.250;6.778;2023-02-28T02:07:45;102573.13;;;2.87;50.67
22830;BME280;11581;51.250;6.778;2023-02-28T02:10:17;102570.66;;;2.83;51.14
22830;BME280;11581;51.250;6.778;2023-02-28T02:13:08;102523.75;;;2.43;52.09
22830;BME280;11581;51.250;6.778;2023-02-28T02:15:43;102571.84;;;2.74;51.29
22830;BME280;11581;51.250;6.778;2023-02-28T02:18:23;102568.50;;;2.69;51.33
22830;BME280;11581;51.250;6.778;2023-02-28T02:24:25;102553.41;;;2.50;52.27
22830;BME280;11581;51.250;6.778;2023-02-28T02:27:11;102518.28;;;2.24;52.58
22830;BME280;11581;51.250;6.778;2023-02-28T02:29:52;102568.38;;;2.48;52.09
22830;BME280;11581;51.250;6.778;2023-02-28T02:32:38;102555.38;;;2.43;51.56
22830;BME280;11581;51.250;6.778;2023-02-28T02:35:19;102542.69;;;2.29;51.41
22830;BME280;11581;51.250;6.778;2023-02-28T02:37:54;102550.59;;;2.29;51.52
22830;BME280;11581;51.250;6.778;2023-02-28T02:40:27;102557.56;;;2.30;51.95
22830;BME280;11581;51.250;6.778;2023-02-28T02:43:01;102565.56;;;2.27;52.29
22830;BME280;11581;51.250;6.778;2023-02-28T02:45:33;102552.50;;;2.24;51.72
22830;BME280;11581;51.250;6.778;2023-02-28T02:48:03;102499.09;;;1.95;51.86
22830;BME280;11581;51.250;6.778;2023-02-28T02:50:35;102553.53;;;2.20;52.54
22830;BME280;11581;51.250;6.778;2023-02-28T02:53:05;102544.81;;;2.18;52.24
22830;BME280;11581;51.250;6.778;2023-02-28T02:55:37;102524.38;;;2.00;52.28
22830;BME280;11581;51.250;6.778;2023-02-28T02:58:08;102550.28;;;2.12;52.79
22830;BME280;11581;51.250;6.778;2023-02-28T03:00:41;102524.53;;;1.96;52.58
22830;BME280;11581;51.250;6.778;2023-02-28T03:03:11;102506.06;;;1.71;52.27
22830;BME280;11581;51.250;6.778;2023-02-28T03:05:42;102550.59;;;2.03;52.96
22830;BME280;11581;51.250;6.778;2023-02-28T03:08:12;102527.50;;;1.85;51.82
22830;BME280;11581;51.250;6.778;2023-02-28T03:10:40;102556.06;;;1.97;52.34
22830;BME280;11581;51.250;6.778;2023-02-28T03:16:22;102535.78;;;1.73;53.47
22830;BME280;11581;51.250;6.778;2023-02-28T03:19:01;102350.06;;;0.62;53.33
22830;BME280;11581;51.250;6.778;2023-02-28T03:21:37;102553.91;;;1.82;53.46
22830;BME280;11581;51.250;6.778;2023-02-28T03:24:08;102554.03;;;1.79;53.60
22830;BME280;11581;51.250;6.778;2023-02-28T03:26:39;102555.03;;;1.75;53.46
22830;BME280;11581;51.250;6.778;2023-02-28T03:29:13;102558.59;;;1.74;53.74
22830;BME280;11581;51.250;6.778;2023-02-28T03:31:44;102543.69;;;1.73;54.01
22830;BME280;11581;51.250;6.778;2023-02-28T03:34:17;102535.88;;;1.70;54.08
22830;BME280;11581;51.250;6.778;2023-02-28T03:36:49;102483.75;;;1.29;54.07
22830;BME280;11581;51.250;6.778;2023-02-28T03:39:20;102538.56;;;1.69;54.20
22830;BME280;11581;51.250;6.778;2023-02-28T03:41:51;102518.97;;;1.51;53.91
22830;BME280;11581;51.250;6.778;2023-02-28T03:44:22;102547.41;;;1.66;53.77
22830;BME280;11581;51.250;6.778;2023-02-28T03:46:54;102536.25;;;1.60;54.59
22830;BME280;11581;51.250;6.778;2023-02-28T03:49:27;102543.16;;;1.62;54.49
22830;BME280;11581;51.250;6.778;2023-02-28T03:52:01;102549.28;;;1.63;54.14
22830;BME280;11581;51.250;6.778;2023-02-28T03:54:30;102540.78;;;1.55;53.91
22830;BME280;11581;51.250;6.778;2023-02-28T03:57:04;102553.78;;;1.59;55.00
22830;BME280;11581;51.250;6.778;2023-02-28T03:59:36;102560.75;;;1.60;53.77
22830;BME280;11581;51.250;6.778;2023-02-28T04:02:04;102510.75;;;1.34;53.76
22830;BME280;11581;51.250;6.778;2023-02-28T04:04:31;102556.31;;;1.62;53.68
22830;BME280;11581;51.250;6.778;2023-02-28T04:07:04;102550.25;;;1.60;55.19
22830;BME280;11581;51.250;6.778;2023-02-28T04:09:31;102527.06;;;1.45;53.87
22830;BME280;11581;51.250;6.778;2023-02-28T04:11:57;102495.19;;;1.27;54.04
22830;BME280;11581;51.250;6.778;2023-02-28T04:14:24;102563.34;;;1.62;54.10
22830;BME280;11581;51.250;6.778;2023-02-28T04:16:51;102558.97;;;1.62;53.79
22830;BME280;11581;51.250;6.778;2023-02-28T04:19:18;102558.09;;;1.62;54.08
22830;BME280;11581;51.250;6.778;2023-02-28T04:21:47;102563.28;;;1.63;53.81
22830;BME280;11581;51.250;6.778;2023-02-28T04:24:17;102555.41;;;1.63;53.99
22830;BME280;11581;51.250;6.778;2023-02-28T04:26:45;102523.69;;;1.40;53.86
22830;BME280;11581;51.250;6.778;2023-02-28T04:29:14;102564.22;;;1.62;54.01
22830;BME280;11581;51.250;6.778;2023-02-28T04:31:44;102562.38;;;1.64;53.29
22830;BME280;11581;51.250;6.778;2023-02-28T04:34:10;102565.06;;;1.63;53.90
22830;BME280;11581;51.250;6.778;2023-02-28T04:36:37;102569.47;;;1.62;53.60
22830;BME280;11581;51.250;6.778;2023-02-28T04:39:03;102568.59;;;1.62;53.21
22830;BME280;11581;51.250;6.778;2023-02-28T04:41:31;102568.75;;;1.57;53.78
22830;BME280;11581;51.250;6.778;2023-02-28T04:43:58;102562.56;;;1.60;53.52
22830;BME280;11581;51.250;6.778;2023-02-28T04:46:25;102568.69;;;1.59;53.54
22830;BME280;11581;51.250;6.778;2023-02-28T04:48:51;102498.06;;;1.19;53.74
22830;BME280;11581;51.250;6.778;2023-02-28T04:51:19;102542.88;;;1.44;53.75
22830;BME280;11581;51.250;6.778;2023-02-28T04:53:47;102573.22;;;1.55;53.55
22830;BME280;11581;51.250;6.778;2023-02-28T04:56:15;102552.34;;;1.49;53.10
22830;BME280;11581;51.250;6.778;2023-02-28T04:58:44;102567.13;;;1.53;53.83
22830;BME280;11581;51.250;6.778;2023-02-28T05:01:22;102580.31;;;1.52;54.54
22830;BME280;11581;51.250;6.778;2023-02-28T05:03:50;102572.47;;;1.50;53.74
22830;BME280;11581;51.250;6.778;2023-02-28T05:06:18;102569.84;;;1.50;53.44
22830;BME280;11581;51.250;6.778;2023-02-28T05:08:45;102572.47;;;1.50;53.79
22830;BME280;11581;51.250;6.778;2023-02-28T05:11:16;102567.31;;;1.47;53.55
22830;BME280;11581;51.250;6.778;2023-02-28T05:13:45;102580.47;;;1.47;53.57
22830;BME280;11581;51.250;6.778;2023-02-28T05:16:12;102572.59;;;1.46;52.96
22830;BME280;11581;51.250;6.778;2023-02-28T05:18:39;102557.22;;;1.32;53.52
22830;BME280;11581;51.250;6.778;2023-02-28T05:21:06;102575.28;;;1.44;53.42
22830;BME280;11581;51.250;6.778;2023-02-28T05:23:49;102536.56;;;1.22;53.53
22830;BME280;11581;51.250;6.778;2023-02-28T05:26:15;102581.47;;;1.43;53.38
22830;BME280;11581;51.250;6.778;2023-02-28T05:28:42;102532.44;;;1.13;53.58
22830;BME280;11581;51.250;6.778;2023-02-28T05:31:11;102578.91;;;1.40;53.69
22830;BME280;11581;51.250;6.778;2023-02-28T05:33:37;102581.63;;;1.37;53.25
22830;BME280;11581;51.250;6.778;2023-02-28T05:36:05;102583.41;;;1.37;53.10
22830;BME280;11581;51.250;6.778;2023-02-28T05:38:32;102565.41;;;1.23;53.33
22830;BME280;11581;51.250;6.778;2023-02-28T05:40:59;102583.47;;;1.34;52.87
22830;BME280;11581;51.250;6.778;2023-02-28T05:43:25;102580.91;;;1.32;53.03
22830;BME280;11581;51.250;6.778;2023-02-28T05:45:52;102588.00;;;1.30;52.70
22830;BME280;11581;51.250;6.778;2023-02-28T05:48:20;102593.25;;;1.30;53.42
22830;BME280;11581;51.250;6.778;2023-02-28T05:50:46;102595.03;;;1.28;52.84
22830;BME280;11581;51.250;6.778;2023-02-28T05:53:13;102597.72;;;1.27;52.99
22830;BME280;11581;51.250;6.778;2023-02-28T05:55:40;102590.84;;;1.23;53.47
22830;BME280;11581;51.250;6.778;2023-02-28T05:58:07;102594.44;;;1.20;53.34
22830;BME280;11581;51.250;6.778;2023-02-28T06:00:34;102598.84;;;1.18;53.35
22830;BME280;11581;51.250;6.778;2023-02-28T06:03:00;102610.31;;;1.16;53.35
22830;BME280;11581;51.250;6.778;2023-02-28T06:05:28;102610.44;;;1.11;53.72
22830;BME280;11581;51.250;6.778;2023-02-28T06:07:55;102587.19;;;0.98;53.91
22830;BME280;11581;51.250;6.778;2023-02-28T06:10:22;102607.91;;;1.08;53.73
22830;BME280;11581;51.250;6.778;2023-02-28T06:12:48;102597.66;;;0.99;53.71
22830;BME280;11581;51.250;6.778;2023-02-28T06:15:15;102590.84;;;0.92;53.70
22830;BME280;11581;51.250;6.778;2023-02-28T06:17:42;102622.03;;;1.04;53.73
22830;BME280;11581;51.250;6.778;2023-02-28T06:20:11;102603.91;;;0.95;54.08
22830;BME280;11581;51.250;6.778;2023-02-28T06:22:39;102622.88;;;1.05;53.88
22830;BME280;11581;51.250;6.778;2023-02-28T06:25:06;102530.78;;;0.48;53.73
22830;BME280;11581;51.250;6.778;2023-02-28T06:27:33;102584.91;;;0.86;53.61
22830;BME280;11581;51.250;6.778;2023-02-28T06:30:00;102626.31;;;1.08;53.42
22830;BME280;11581;51.250;6.778;2023-02-28T06:32:27;102627.97;;;1.11;53.92
22830;BME280;11581;51.250;6.778;2023-02-28T06:34:53;102625.31;;;1.12;54.07
22830;BME280;11581;51.250;6.778;2023-02-28T06:37:22;102610.91;;;0.95;53.92
22830;BME280;11581;51.250;6.778;2023-02-28T06:39:53;102641.50;;;1.29;55.10
22830;BME280;11581;51.250;6.778;2023-02-28T06:42:21;102634.75;;;1.48;55.33
22830;BME280;11581;51.250;6.778;2023-02-28T06:44:50;102629.63;;;1.74;56.10
22830;BME280;11581;51.250;6.778;2023-02-28T06:47:16;102639.97;;;2.06;56.25
22830;BME280;11581;51.250;6.778;2023-02-28T06:49:43;102582.06;;;2.06;55.99
22830;BME280;11581;51.250;6.778;2023-02-28T06:52:10;102639.91;;;2.88;55.58
22830;BME280;11581;51.250;6.778;2023-02-28T06:54:37;102632.84;;;3.36;55.58
22830;BME280;11581;51.250;6.778;2023-02-28T06:57:04;102648.44;;;3.88;55.30
22830;BME280;11581;51.250;6.778;2023-02-28T06:59:31;102640.84;;;4.43;54.80
22830;BME280;11581;51.250;6.778;2023-02-28T07:01:58;102545.66;;;4.45;53.59
22830;BME280;11581;51.250;6.778;2023-02-28T07:04:25;102640.09;;;5.60;53.07
22830;BME280;11581;51.250;6.778;2023-02-28T07:06:53;102546.50;;;5.61;52.02
22830;BME280;11581;51.250;6.778;2023-02-28T07:09:22;102644.22;;;6.74;51.51
22830;BME280;11581;51.250;6.778;2023-02-28T07:11:48;102630.53;;;7.33;50.23
22830;BME280;11581;51.250;6.778;2023-02-28T07:14:16;102640.59;;;7.90;48.70
22830;BME280;11581;51.250;6.778;2023-02-28T07:16:43;102639.22;;;8.45;48.28
22830;BME280;11581;51.250;6.778;2023-02-28T07:19:10;102603.78;;;8.74;47.13
22830;BME280;11581;51.250;6.778;2023-02-28T07:21:37;102635.34;;;9.52;46.03
22830;BME280;11581;51.250;6.778;2023-02-28T07:24:04;102634.81;;;10.01;45.49
22830;BME280;11581;51.250;6.778;2023-02-28T07:26:31;102636.97;;;10.49;44.52
22830;BME280;11581;51.250;6.778;2023-02-28T07:28:59;102632.59;;;11.00;43.75
22830;BME280;11581;51.250;6.778;2023-02-28T07:31:27;102633.44;;;11.51;41.75
22830;BME280;11581;51.250;6.778;2023-02-28T07:33:54;102643.22;;;12.00;41.70
22830;BME280;11581;51.250;6.778;2023-02-28T07:36:21;102635.09;;;12.49;40.84
22830;BME280;11581;51.250;6.778;2023-02-28T07:38:48;102631.50;;;12.95;40.26
22830;BME280;11581;51.250;6.778;2023-02-28T07:41:16;102613.44;;;13.32;39.65
22830;BME280;11581;51.250;6.778;2023-02-28T07:43:44;102645.25;;;13.92;38.50
22830;BME280;11581;51.250;6.778;2023-02-28T07:46:12;102633.47;;;14.37;37.21
22830;BME280;11581;51.250;6.778;2023-02-28T07:48:42;102639.06;;;14.76;35.65
22830;BME280;11581;51.250;6.778;2023-02-28T07:51:09;102642.84;;;15.15;35.74
22830;BME280;11581;51.250;6.778;2023-02-28T07:53:35;102648.50;;;15.53;35.19
22830;BME280;11581;51.250;6.778;2023-02-28T07:56:03;102617.69;;;15.67;34.24
22830;BME280;11581;51.250;6.778;2023-02-28T07:58:30;102644.19;;;16.20;33.25
22830;BME280;11581;51.250;6.778;2023-02-28T08:00:57;102612.47;;;16.24;32.55
22830;BME280;11581;51.250;6.778;2023-02-28T08:03:31;102651.78;;;16.74;32.04
22830;BME280;11581;51.250;6.778;2023-02-28T08:05:58;102653.47;;;16.94;30.64
22830;BME280;11581;51.250;6.778;2023-02-28T08:08:25;102658.16;;;17.11;30.83
22830;BME280;11581;51.250;6.778;2023-02-28T08:10:54;102644.94;;;17.27;30.81
22830;BME280;11581;51.250;6.778;2023-02-28T08:13:21;102653.84;;;17.46;30.21
22830;BME280;11581;51.250;6.778;2023-02-28T08:15:47;102643.84;;;17.66;29.58
22830;BME280;11581;51.250;6.778;2023-02-28T08:18:14;102631.84;;;17.78;29.57
22830;BME280;11581;51.250;6.778;2023-02-28T08:20:40;102491.00;;;17.11;29.02
22830;BME280;11581;51.250;6.778;2023-02-28T08:23:08;102648.91;;;18.23;27.60
22830;BME280;11581;51.250;6.778;2023-02-28T08:25:35;102647.72;;;18.35;28.06
22830;BME280;11581;51.250;6.778;2023-02-28T08:28:02;102654.41;;;18.58;27.62
22830;BME280;11581;51.250;6.778;2023-02-28T08:30:28;102652.72;;;18.75;26.85
22830;BME280;11581;51.250;6.778;2023-02-28T08:32:55;102666.13;;;18.84;26.48
22830;BME280;11581;51.250;6.778;2023-02-28T08:35:22;102619.97;;;18.60;25.54
22830;BME280;11581;51.250;6.778;2023-02-28T08:37:49;102657.41;;;18.73;25.30
22830;BME280;11581;51.250;6.778;2023-02-28T08:40:17;102656.03;;;18.51;24.56
22830;BME280;11581;51.250;6.778;2023-02-28T08:42:44;102658.13;;;18.30;25.26
22830;BME280;11581;51.250;6.778;2023-02-28T08:45:11;102647.31;;;18.13;25.13
22830;BME280;11581;51.250;6.778;2023-02-28T08:47:37;102625.84;;;17.84;25.38
22830;BME280;11581;51.250;6.778;2023-02-28T08:50:05;102621.03;;;17.78;25.07
22830;BME280;11581;51.250;6.778;2023-02-28T08:52:31;102629.84;;;17.80;25.30
22830;BME280;11581;51.250;6.778;2023-02-28T08:54:58;102649.69;;;17.89;24.91
22830;BME280;11581;51.250;6.778;2023-02-28T08:57:26;102660.50;;;17.89;24.37
22830;BME280;11581;51.250;6.778;2023-02-28T08:59:53;102654.06;;;17.90;25.26
22830;BME280;11581;51.250;6.778;2023-02-28T09:02:19;102648.22;;;17.94;25.04
22830;BME280;11581;51.250;6.778;2023-02-28T09:04:46;102647.94;;;17.97;24.71
22830;BME280;11581;51.250;6.778;2023-02-28T09:07:13;102627.25;;;17.88;24.17
22830;BME280;11581;51.250;6.778;2023-02-28T09:09:39;102635.50;;;17.87;23.81
22830;BME280;11581;51.250;6.778;2023-02-28T09:12:19;102577.50;;;17.27;23.63
22830;BME280;11581;51.250;6.778;2023-02-28T09:14:47;102642.78;;;17.40;22.82
22830;BME280;11581;51.250;6.778;2023-02-28T09:17:13;102643.09;;;17.08;23.46
22830;BME280;11581;51.250;6.778;2023-02-28T09:19:40;102595.38;;;16.44;24.00
22830;BME280;11581;51.250;6.778;2023-02-28T09:22:08;102634.91;;;16.43;24.12
22830;BME280;11581;51.250;6.778;2023-02-28T09:24:35;102639.41;;;16.24;24.19
22830;BME280;11581;51.250;6.778;2023-02-28T09:27:02;102619.38;;;16.07;24.75
22830;BME280;11581;51.250;6.778;2023-02-28T09:29:28;102636.25;;;16.19;25.25
22830;BME280;11581;51.250;6.778;2023-02-28T09:31:56;102645.38;;;16.37;24.95
22830;BME280;11581;51.250;6.778;2023-02-28T09:34:24;102620.31;;;16.65;25.44
22830;BME280;11581;51.250;6.778;2023-02-28T09:36:50;102624.84;;;16.93;24.86
22830;BME280;11581;51.250;6.778;2023-02-28T09:39:20;102632.03;;;17.11;23.97
22830;BME280;11581;51.250;6.778;2023-02-28T09:41:48;102632.59;;;17.15;23.59
22830;BME280;11581;51.250;6.778;2023-02-28T09:44:22;102630.91;;;17.14;22.93
22830;BME280;11581;51.250;6.778;2023-02-28T09:46:54;102576.78;;;16.79;23.23
22830;BME280;11581;51.250;6.778;2023-02-28T09:49:25;102628.50;;;17.11;22.79
22830;BME280;11581;51.250;6.778;2023-02-28T09:51:58;102621.56;;;16.99;22.44
22830;BME280;11581;51.250;6.778;2023-02-28T09:54:29;102631.66;;;16.78;22.38
22830;BME280;11581;51.250;6.778;2023-02-28T09:56:59;102618.72;;;16.34;22.46
22830;BME280;11581;51.250;6.778;2023-02-28T09:59:41;102628.88;;;16.02;22.12
22830;BME280;11581;51.250;6.778;2023-02-28T10:02:22;102625.56;;;15.58;22.68
22830;BME280;11581;51.250;6.778;2023-02-28T10:05:06;102638.75;;;15.11;23.16
22830;BME280;11581;51.250;6.778;2023-02-28T10:07:45;102641.06;;;14.63;23.50
22830;BME280;11581;51.250;6.778;2023-02-28T10:10:20;102641.41;;;14.16;23.56
22830;BME280;11581;51.250;6.778;2023-02-28T10:12:51;102630.03;;;13.70;24.24
22830;BME280;11581;51.250;6.778;2023-02-28T10:15:21;102500.75;;;12.33;24.45
22830;BME280;11581;51.250;6.778;2023-02-28T10:17:54;102620.84;;;12.72;24.59
22830;BME280;11581;51.250;6.778;2023-02-28T10:20:23;102631.69;;;12.47;25.11
22830;BME280;11581;51.250;6.778;2023-02-28T10:22:58;102519.09;;;11.43;25.43
22830;BME280;11581;51.250;6.778;2023-02-28T10:25:32;102638.97;;;11.85;26.11
22830;BME280;11581;51.250;6.778;2023-02-28T10:28:04;102636.22;;;11.62;26.47
22830;BME280;11581;51.250;6.778;2023-02-28T10:30:31;102623.41;;;11.42;26.70
22830;BME280;11581;51.250;6.778;2023-02-28T10:32:58;102622.25;;;11.20;27.13
22830;BME280;11581;51.250;6.778;2023-02-28T10:35:26;102656.22;;;11.06;27.36
22830;BME280;11581;51.250;6.778;2023-02-28T10:37:55;102606.53;;;10.78;27.60
22830;BME280;11581;51.250;6.778;2023-02-28T10:40:30;102610.22;;;10.63;27.71
22830;BME280;11581;51.250;6.778;2023-02-28T10:42:57;102629.34;;;10.70;28.58
22830;BME280;11581;51.250;6.778;2023-02-28T10:45:25;102562.50;;;10.20;28.11
22830;BME280;11581;51.250;6.778;2023-02-28T10:47:53;102640.84;;;10.58;28.08
22830;BME280;11581;51.250;6.778;2023-02-28T10:50:33;102570.28;;;10.10;28.15
22830;BME280;11581;51.250;6.778;2023-02-28T10:53:25;102611.72;;;10.28;28.22
22830;BME280;11581;51.250;6.778;2023-02-28T10:55:59;102624.75;;;10.33;27.93
22830;BME280;11581;51.250;6.778;2023-02-28T10:58:28;102631.53;;;10.24;27.98
22830;BME280;11581;51.250;6.778;2023-02-28T11:00:55;102571.16;;;9.83;28.03
22830;BME280;11581;51.250;6.778;2023-02-28T11:03:31;102595.72;;;9.88;27.93
22830;BME280;11581;51.250;6.778;2023-02-28T11:06:05;102617.91;;;9.88;27.84
22830;BME280;11581;51.250;6.778;2023-02-28T11:08:33;102594.72;;;9.62;27.95
22830;BME280;11581;51.250;6.778;2023-02-28T11:11:03;102613.28;;;9.64;28.24
22830;BME280;11581;51.250;6.778;2023-02-28T11:13:33;102614.84;;;9.80;29.01
22830;BME280;11581;51.250;6.778;2023-02-28T11:16:02;102576.91;;;9.77;28.86
22830;BME280;11581;51.250;6.778;2023-02-28T11:18:34;102607.47;;;10.38;28.89
22830;BME280;11581;51.250;6.778;2023-02-28T11:21:04;102619.09;;;10.76;28.73
22830;BME280;11581;51.250;6.778;2023-02-28T11:23:34;102607.47;;;11.15;28.53
22830;BME280;11581;51.250;6.778;2023-02-28T11:26:03;102598.50;;;11.54;28.17
22830;BME280;11581;51.250;6.778;2023-02-28T11:28:36;102617.47;;;11.87;28.22
22830;BME280;11581;51.250;6.778;2023-02-28T11:31:13;102584.78;;;12.07;27.55
22830;BME280;11581;51.250;6.778;2023-02-28T11:33:42;102609.94;;;12.28;26.99
22830;BME280;11581;51.250;6.778;2023-02-28T11:36:14;102603.25;;;12.46;26.06
22830;BME280;11581;51.250;6.778;2023-02-28T11:38:42;102617.56;;;12.45;26.83
22830;BME280;11581;51.250;6.778;2023-02-28T11:44:28;102587.78;;;12.49;26.08
22830;BME280;11581;51.250;6.778;2023-02-28T11:47:01;102595.59;;;12.52;26.17
22830;BME280;11581;51.250;6.778;2023-02-28T11:49:35;102605.91;;;12.46;25.92
22830;BME280;11581;51.250;6.778;2023-02-28T11:52:16;102602.19;;;12.36;25.98
22830;BME280;11581;51.250;6.778;2023-02-28T11:54:59;102589.88;;;12.22;26.19
22830;BME280;11581;51.250;6.778;2023-02-28T11:57:46;102574.56;;;12.01;26.85
22830;BME280;11581;51.250;6.778;2023-02-28T12:00:28;102591.19;;;12.17;26.86
22830;BME280;11581;51.250;6.778;2023-02-28T12:03:03;102589.41;;;12.28;27.33
22830;BME280;11581;51.250;6.778;2023-02-28T12:05:40;102593.47;;;12.45;26.86
22830;BME280;11581;51.250;6.778;2023-02-28T12:08:26;102584.06;;;12.63;26.80
22830;BME280;11581;51.250;6.778;2023-02-28T12:11:03;102589.97;;;12.79;26.74
22830;BME280;11581;51.250;6.778;2023-02-28T12:13:44;102517.34;;;12.49;26.09
22830;BME280;11581;51.250;6.778;2023-02-28T12:16:42;102585.59;;;12.89;26.35
22830;BME280;11581;51.250;6.778;2023-02-28T12:19:24;102580.94;;;12.80;25.94
22830;BME280;11581;51.250;6.778;2023-02-28T12:22:22;102580.66;;;12.61;26.24
22830;BME280;11581;51.250;6.778;2023-02-28T12:25:18;102567.94;;;12.41;26.39
22830;BME280;11581;51.250;6.778;2023-02-28T12:27:48;102576.97;;;12.27;26.68
22830;BME280;11581;51.250;6.778;2023-02-28T12:30:19;102569.28;;;12.23;26.87
22830;BME280;11581;51.250;6.778;2023-02-28T12:32:49;102563.25;;;12.32;27.78
22830;BME280;11581;51.250;6.778;2023-02-28T12:35:20;102560.44;;;12.57;27.57
22830;BME280;11581;51.250;6.778;2023-02-28T12:37:52;102547.47;;;12.85;27.23
22830;BME280;11581;51.250;6.778;2023-02-28T12:40:22;102547.94;;;13.14;27.44
22830;BME280;11581;51.250;6.778;2023-02-28T12:42:51;102529.88;;;13.38;27.59
22830;BME280;11581;51.250;6.778;2023-02-28T12:45:20;102545.53;;;13.87;27.06
22830;BME280;11581;51.250;6.778;2023-02-28T12:47:52;102553.13;;;14.24;26.38
22830;BME280;11581;51.250;6.778;2023-02-28T12:50:22;102533.00;;;14.50;26.26
22830;BME280;11581;51.250;6.778;2023-02-28T12:52:54;102525.72;;;14.62;25.42
22830;BME280;11581;51.250;6.778;2023-02-28T12:55:33;102526.47;;;14.64;25.14
22830;BME280;11581;51.250;6.778;2023-02-28T12:58:11;102498.28;;;14.58;25.14
22830;BME280;11581;51.250;6.778;2023-02-28T13:00:52;102511.66;;;14.69;24.85
22830;BME280;11581;51.250;6.778;2023-02-28T13:03:45;102507.44;;;14.76;25.37
22830;BME280;11581;51.250;6.778;2023-02-28T13:06:26;102516.13;;;14.89;24.90
22830;BME280;11581;51.250;6.778;2023-02-28T13:09:10;102506.75;;;15.04;24.99
22830;BME280;11581;51.250;6.778;2023-02-28T13:11:44;102492.47;;;15.13;24.62
22830;BME280;11581;51.250;6.778;2023-02-28T13:14:20;102451.13;;;14.95;24.58
22830;BME280;11581;51.250;6.778;2023-02-28T13:17:03;102493.97;;;15.27;24.92
22830;BME280;11581;51.250;6.778;2023-02-28T13:19:38;102494.28;;;15.33;24.90
22830;BME280;11581;51.250;6.778;2023-02-28T13:22:16;102504.03;;;15.34;24.33